createdAt,value
2023-02-22T00:00:43.004Z,101180.03
2023-02-22T00:02:27.050Z,101181.84
2023-02-22T00:03:58.612Z,101173.22
2023-02-22T00:05:31.554Z,101188.97
2023-02-22T00:07:03.053Z,101189.13
2023-02-22T00:08:36.981Z,101185.69
2023-02-22T00:10:13.336Z,101180.47
2023-02-22T00:11:47.572Z,101185.66
2023-02-22T00:13:19.735Z,101178.56
2023-02-22T00:14:51.324Z,101177.56
2023-02-22T00:16:23.671Z,101176.53
2023-02-22T00:17:55.318Z,101173.78
2023-02-22T00:19:28.121Z,101174.44
2023-02-22T00:21:00.733Z,101169.09
2023-02-22T00:22:32.370Z,101170.81
2023-02-22T00:24:22.774Z,101170.81
2023-02-22T00:25:54.868Z,101174.34
2023-02-22T00:27:27.771Z,101171.78
2023-02-22T00:28:59.310Z,101163.06
2023-02-22T00:30:31.973Z,101164.75
2023-02-22T00:32:04.034Z,101165.59
2023-02-22T00:33:36.558Z,101155.94
2023-02-22T00:35:08.838Z,101160.28
2023-02-22T00:36:44.489Z,101157.72
2023-02-22T00:38:18.531Z,101156.88
2023-02-22T00:39:50.951Z,101155.09
2023-02-22T00:41:22.609Z,101165.56
2023-02-22T00:42:56.964Z,101164.63
2023-02-22T00:44:28.506Z,101159.25
2023-02-22T00:46:00.181Z,101158.31
2023-02-22T00:47:31.877Z,101153.91
2023-02-22T00:49:03.632Z,101154.69
2023-02-22T00:50:35.560Z,101153.78
2023-02-22T00:52:07.800Z,101148.53
2023-02-22T00:53:39.310Z,101152.91
2023-02-22T00:55:15.083Z,101150.25
2023-02-22T00:56:46.973Z,101153.03
2023-02-22T00:58:20.431Z,101153.13
2023-02-22T00:59:51.992Z,101140.19
2023-02-22T01:01:24.196Z,101148.94
2023-02-22T01:02:56.893Z,101141.06
2023-02-22T01:04:28.487Z,101149.00
2023-02-22T01:06:00.034Z,101142.91
2023-02-22T01:07:31.572Z,101136.03
2023-02-22T01:09:04.113Z,101137.91
2023-02-22T01:10:36.252Z,101132.63
2023-02-22T01:12:08.173Z,101134.25
2023-02-22T01:13:41.131Z,101134.34
2023-02-22T01:15:12.877Z,101131.91
2023-02-22T01:16:44.564Z,101133.75
2023-02-22T01:18:17.375Z,101132.09
2023-02-22T01:19:49.216Z,101139.13
2023-02-22T01:21:22.367Z,101131.28
2023-02-22T01:22:55.221Z,101137.25
2023-02-22T01:24:27.412Z,101129.31
2023-02-22T01:25:59.705Z,101128.31
2023-02-22T01:27:31.206Z,101122.13
2023-02-22T01:29:04.101Z,101125.53
2023-02-22T01:30:36.403Z,101117.56
2023-02-22T01:32:08.639Z,101120.28
2023-02-22T01:33:40.286Z,101122.13
2023-02-22T01:35:13.967Z,101120.28
2023-02-22T01:36:45.528Z,101107.94
2023-02-22T01:38:17.356Z,101110.44
2023-02-22T01:39:48.888Z,101106.06
2023-02-22T01:41:20.554Z,101114.84
2023-02-22T01:42:53.469Z,101110.50
2023-02-22T01:44:28.651Z,101112.28
2023-02-22T01:46:01.741Z,101104.47
2023-02-22T01:47:33.644Z,101107.13
2023-02-22T01:49:10.276Z,101100.22
2023-02-22T01:50:44.805Z,101101.13
2023-02-22T01:52:19.334Z,101105.38
2023-02-22T01:53:54.702Z,101100.06
2023-02-22T01:55:26.839Z,101102.63
2023-02-22T01:57:00.885Z,101102.63
2023-02-22T01:58:33.731Z,101101.72
2023-02-22T02:00:11.076Z,101102.56
2023-02-22T02:01:45.322Z,101089.53
2023-02-22T02:03:19.147Z,101093.13
2023-02-22T02:04:51.599Z,101087.97
2023-02-22T02:06:23.218Z,101083.56
2023-02-22T02:07:54.785Z,101084.50
2023-02-22T02:09:30.886Z,101086.25
2023-02-22T02:11:04.023Z,101074.88
2023-02-22T02:12:35.990Z,101080.09
2023-02-22T02:14:08.267Z,101082.72
2023-02-22T02:15:41.177Z,101080.13
2023-02-22T02:17:15.197Z,101072.25
2023-02-22T02:18:46.810Z,101072.22
2023-02-22T02:20:22.401Z,101080.03
2023-02-22T02:22:10.743Z,101077.47
2023-02-22T02:23:52.529Z,101082.66
2023-02-22T02:25:42.045Z,101073.03
2023-02-22T02:27:16.638Z,101073.03
2023-02-22T02:29:06.891Z,101084.38
2023-02-22T02:30:48.864Z,101075.56
2023-02-22T02:32:28.030Z,101078.13
2023-02-22T02:34:02.677Z,101071.91
2023-02-22T02:35:47.949Z,101068.41
2023-02-22T02:37:21.981Z,101060.50
2023-02-22T02:38:56.861Z,101068.28
2023-02-22T02:40:33.427Z,101067.38
2023-02-22T02:42:08.074Z,101052.44
2023-02-22T02:43:42.363Z,101063.78
2023-02-22T02:45:16.137Z,101061.16
2023-02-22T02:46:50.849Z,101058.56
2023-02-22T02:48:26.207Z,101053.34
2023-02-22T02:50:00.059Z,101053.41
2023-02-22T02:51:34.900Z,101054.44
2023-02-22T02:53:08.759Z,101053.56
2023-02-22T02:54:40.503Z,101054.47
2023-02-22T02:56:12.485Z,101047.41
2023-02-22T02:57:44.938Z,101053.59
2023-02-22T02:59:24.453Z,101045.03
2023-02-22T03:00:57.274Z,101051.41
2023-02-22T03:02:35.882Z,101049.09
2023-02-22T03:04:21.084Z,101049.41
2023-02-22T03:06:02.267Z,101047.88
2023-02-22T03:07:42.915Z,101042.81
2023-02-22T03:09:20.369Z,101043.69
2023-02-22T03:10:56.962Z,101036.75
2023-02-22T03:12:35.843Z,101043.84
2023-02-22T03:14:11.194Z,101036.22
2023-02-22T03:15:48.578Z,101040.69
2023-02-22T03:17:23.332Z,101030.19
2023-02-22T03:18:56.441Z,101039.75
2023-02-22T03:20:31.808Z,101043.28
2023-02-22T03:22:10.524Z,101036.41
2023-02-22T03:23:45.814Z,101039.16
2023-02-22T03:25:19.921Z,101043.59
2023-02-22T03:26:53.763Z,101044.47
2023-02-22T03:28:26.437Z,101041.03
2023-02-22T03:30:01.172Z,101047.19
2023-02-22T03:31:37.260Z,101043.72
2023-02-22T03:33:12.429Z,101047.34
2023-02-22T03:34:47.463Z,101040.38
2023-02-22T03:36:24.899Z,101045.59
2023-02-22T03:38:00.400Z,101041.25
2023-02-22T03:39:33.905Z,101051.78
2023-02-22T03:41:07.795Z,101043.88
2023-02-22T03:42:40.905Z,101045.63
2023-02-22T03:44:14.995Z,101047.47
2023-02-22T03:45:48.833Z,101041.34
2023-02-22T03:47:24.643Z,101045.75
2023-02-22T03:49:00.471Z,101051.94
2023-02-22T03:50:37.988Z,101035.50
2023-02-22T03:52:12.852Z,101039.84
2023-02-22T03:53:45.243Z,101032.88
2023-02-22T03:55:17.767Z,101043.28
2023-02-22T03:56:50.868Z,101038.94
2023-02-22T03:58:27.039Z,101039.84
2023-02-22T03:59:58.766Z,101036.34
2023-02-22T04:01:30.645Z,101037.28
2023-02-22T04:03:02.310Z,101036.53
2023-02-22T04:04:33.977Z,101041.94
2023-02-22T04:06:05.923Z,101048.16
2023-02-22T04:07:38.951Z,101041.28
2023-02-22T04:09:10.780Z,101040.50
2023-02-22T04:10:44.214Z,101038.03
2023-02-22T04:12:15.816Z,101034.69
2023-02-22T04:13:59.030Z,101043.47
2023-02-22T04:15:30.576Z,101044.34
2023-02-22T04:17:10.517Z,101040.03
2023-02-22T04:18:42.082Z,101038.41
2023-02-22T04:20:13.963Z,101034.03
2023-02-22T04:21:52.038Z,101036.66
2023-02-22T04:23:28.784Z,101037.50
2023-02-22T04:25:00.442Z,101028.72
2023-02-22T04:26:32.599Z,101040.06
2023-02-22T04:28:06.318Z,101036.56
2023-02-22T04:29:58.237Z,101029.56
2023-02-22T04:31:29.855Z,101022.56
2023-02-22T04:33:03.352Z,101023.44
2023-02-22T04:34:35.215Z,101019.06
2023-02-22T04:36:07.659Z,101011.25
2023-02-22T04:37:40.182Z,101019.19
2023-02-22T04:39:13.941Z,101011.34
2023-02-22T04:40:45.526Z,101017.50
2023-02-22T04:42:17.087Z,101011.47
2023-02-22T04:43:48.793Z,101012.34
2023-02-22T04:45:23.449Z,101017.63
2023-02-22T04:46:56.632Z,101015.88
2023-02-22T04:48:28.185Z,101008.09
2023-02-22T04:50:00.417Z,101010.72
2023-02-22T04:51:32.151Z,101014.16
2023-02-22T04:53:06.308Z,101015.94
2023-02-22T04:54:40.712Z,101005.44
2023-02-22T04:56:12.268Z,101009.78
2023-02-22T04:57:43.922Z,101002.72
2023-02-22T04:59:16.178Z,101001.81
2023-02-22T05:00:56.768Z,101005.31
2023-02-22T05:02:28.545Z,100996.56
2023-02-22T05:04:01.563Z,100999.22
2023-02-22T05:05:33.107Z,100996.59
2023-02-22T05:07:04.845Z,101000.06
2023-02-22T05:08:36.485Z,100987.00
2023-02-22T05:10:09.682Z,100985.22
2023-02-22T05:11:41.170Z,100986.94
2023-02-22T05:13:12.729Z,100976.44
2023-02-22T05:14:44.552Z,100979.94
2023-02-22T05:16:16.371Z,100977.34
2023-02-22T05:17:49.008Z,100973.75
2023-02-22T05:19:20.583Z,100982.53
2023-02-22T05:20:52.531Z,100978.06
2023-02-22T05:22:24.484Z,100976.34
2023-02-22T05:23:56.009Z,100979.81
2023-02-22T05:25:29.297Z,100977.19
2023-02-22T05:27:00.866Z,100976.28
2023-02-22T05:28:32.714Z,100976.28
2023-02-22T05:30:04.527Z,100970.13
2023-02-22T05:31:36.157Z,100967.53
2023-02-22T05:33:10.858Z,100973.56
2023-02-22T05:34:42.474Z,100975.38
2023-02-22T05:36:14.063Z,100966.63
2023-02-22T05:37:45.624Z,100966.50
2023-02-22T05:39:17.199Z,100962.84
2023-02-22T05:40:50.246Z,100965.34
2023-02-22T05:42:22.073Z,100960.84
2023-02-22T05:43:53.580Z,100965.19
2023-02-22T05:45:26.675Z,100970.38
2023-02-22T05:46:58.346Z,100961.53
2023-02-22T05:48:31.017Z,100963.28
2023-02-22T05:50:02.587Z,100961.53
2023-02-22T05:51:34.143Z,100958.88
2023-02-22T05:53:05.716Z,100952.69
2023-02-22T05:54:37.265Z,100960.53
2023-02-22T05:56:10.247Z,100950.91
2023-02-22T05:57:41.850Z,100950.84
2023-02-22T05:59:13.456Z,100950.94
2023-02-22T06:00:44.994Z,100948.34
2023-02-22T06:02:16.848Z,100948.34
2023-02-22T06:03:48.722Z,100957.94
2023-02-22T06:05:20.348Z,100953.56
2023-02-22T06:06:51.888Z,100956.13
2023-02-22T06:08:23.562Z,100957.94
2023-02-22T06:09:55.052Z,100953.50
2023-02-22T06:11:27.969Z,100953.50
2023-02-22T06:13:00.119Z,100948.19
2023-02-22T06:14:31.679Z,100942.03
2023-02-22T06:16:03.256Z,100938.53
2023-02-22T06:17:34.850Z,100944.50
2023-02-22T06:19:06.440Z,100942.66
2023-02-22T06:20:38.264Z,100935.63
2023-02-22T06:22:15.659Z,100940.88
2023-02-22T06:23:47.425Z,100939.34
2023-02-22T06:25:20.651Z,100938.47
2023-02-22T06:26:56.938Z,100939.38
2023-02-22T06:28:28.512Z,100946.38
2023-02-22T06:30:00.415Z,100943.84
2023-02-22T06:31:32.124Z,100937.75
2023-02-22T06:33:03.876Z,100933.34
2023-02-22T06:34:35.617Z,100937.75
2023-02-22T06:36:07.881Z,100943.00
2023-02-22T06:37:39.793Z,100941.34
2023-02-22T06:39:11.322Z,100942.41
2023-02-22T06:40:42.806Z,100940.69
2023-02-22T06:42:15.826Z,100949.44
2023-02-22T06:43:47.439Z,100941.53
2023-02-22T06:45:19.140Z,100944.97
2023-02-22T06:46:51.290Z,100948.41
2023-02-22T06:48:22.859Z,100945.72
2023-02-22T06:49:54.451Z,100948.41
2023-02-22T06:51:26.413Z,100945.78
2023-02-22T06:52:58.506Z,100946.66
2023-02-22T06:54:30.098Z,100944.94
2023-02-22T06:56:02.231Z,100940.44
2023-02-22T06:57:35.205Z,100932.56
2023-02-22T06:59:06.885Z,100942.13
2023-02-22T07:00:38.647Z,100936.03
2023-02-22T07:02:10.645Z,100933.47
2023-02-22T07:03:42.566Z,100936.94
2023-02-22T07:05:15.385Z,100937.94
2023-02-22T07:06:47.108Z,100939.72
2023-02-22T07:08:18.717Z,100943.22
2023-02-22T07:09:50.237Z,100939.78
2023-02-22T07:11:21.859Z,100937.19
2023-02-22T07:12:54.731Z,100932.78
2023-02-22T07:14:26.375Z,100937.13
2023-02-22T07:15:57.923Z,100929.25
2023-02-22T07:17:29.583Z,100931.69
2023-02-22T07:19:01.239Z,100928.06
2023-02-22T07:20:33.340Z,100930.66
2023-02-22T07:22:06.145Z,100925.38
2023-02-22T07:23:37.887Z,100924.53
2023-02-22T07:25:10.182Z,100934.13
2023-02-22T07:26:42.194Z,100929.75
2023-02-22T07:28:15.457Z,100934.88
2023-02-22T07:29:46.991Z,100930.50
2023-02-22T07:31:18.850Z,100932.38
2023-02-22T07:32:50.899Z,100927.19
2023-02-22T07:34:22.534Z,100929.97
2023-02-22T07:35:54.065Z,100923.75
2023-02-22T07:37:25.865Z,100930.66
2023-02-22T07:38:57.385Z,100929.72
2023-02-22T07:40:28.994Z,100930.63
2023-02-22T07:42:00.718Z,100934.13
2023-02-22T07:43:35.542Z,100930.63
2023-02-22T07:45:08.457Z,100928.94
2023-02-22T07:46:40.014Z,100925.50
2023-02-22T07:48:12.622Z,100927.22
2023-02-22T07:49:44.278Z,100921.97
2023-02-22T07:51:16.786Z,100919.34
2023-02-22T07:52:49.457Z,100922.00
2023-02-22T07:54:21.077Z,100909.75
2023-02-22T07:55:52.830Z,100921.91
2023-02-22T07:57:24.465Z,100914.03
2023-02-22T07:58:57.401Z,100917.41
2023-02-22T08:00:31.020Z,100911.28
2023-02-22T08:02:02.596Z,100918.19
2023-02-22T08:03:36.882Z,100913.88
2023-02-22T08:05:10.681Z,100912.97
2023-02-22T08:06:46.270Z,100901.56
2023-02-22T08:08:19.814Z,100905.84
2023-02-22T08:09:51.528Z,100901.31
2023-02-22T08:11:23.837Z,100904.78
2023-02-22T08:12:55.950Z,100902.00
2023-02-22T08:14:28.939Z,100901.78
2023-02-22T08:16:00.534Z,100903.41
2023-02-22T08:17:32.090Z,100897.03
2023-02-22T08:19:03.626Z,100895.06
2023-02-22T08:20:35.832Z,100884.59
2023-02-22T08:22:07.384Z,100886.16
2023-02-22T08:23:38.963Z,100887.03
2023-02-22T08:25:10.665Z,100888.69
2023-02-22T08:26:44.474Z,100882.38
2023-02-22T08:28:19.904Z,100881.38
2023-02-22T08:29:53.430Z,100878.66
2023-02-22T08:31:25.099Z,100879.56
2023-02-22T08:32:56.964Z,100881.25
2023-02-22T08:34:28.730Z,100881.31
2023-02-22T08:36:01.674Z,100877.75
2023-02-22T08:37:33.422Z,100883.75
2023-02-22T08:39:04.966Z,100883.59
2023-02-22T08:40:37.399Z,100884.31
2023-02-22T08:42:09.898Z,100886.88
2023-02-22T08:43:41.535Z,100877.97
2023-02-22T08:45:14.707Z,100876.97
2023-02-22T08:46:46.206Z,100871.63
2023-02-22T08:48:18.274Z,100881.16
2023-02-22T08:49:49.885Z,100877.66
2023-02-22T08:51:21.508Z,100876.75
2023-02-22T08:52:53.897Z,100880.16
2023-02-22T08:54:25.422Z,100871.34
2023-02-22T08:55:56.971Z,100878.31
2023-02-22T08:57:28.530Z,100886.19
2023-02-22T08:59:00.135Z,100880.00
2023-02-22T09:00:33.942Z,100871.97
2023-02-22T09:02:05.856Z,100872.66
2023-02-22T09:03:37.426Z,100879.53
2023-02-22T09:05:09.249Z,100872.50
2023-02-22T09:06:41.380Z,100882.00
2023-02-22T09:08:13.040Z,100885.38
2023-02-22T09:09:44.939Z,100883.53
2023-02-22T09:11:16.750Z,100881.56
2023-02-22T09:12:48.987Z,100882.22
2023-02-22T09:14:20.631Z,100879.38
2023-02-22T09:15:53.624Z,100875.53
2023-02-22T09:17:25.220Z,100876.31
2023-02-22T09:18:56.823Z,100885.75
2023-02-22T09:20:28.674Z,100881.25
2023-02-22T09:22:00.587Z,100873.19
2023-02-22T09:23:32.312Z,100878.34
2023-02-22T09:25:15.904Z,100881.66
2023-02-22T09:26:53.360Z,100876.22
2023-02-22T09:28:24.962Z,100869.88
2023-02-22T09:29:59.304Z,100880.13
2023-02-22T09:31:34.386Z,100878.22
2023-02-22T09:33:07.060Z,100870.97
2023-02-22T09:34:45.706Z,100859.53
2023-02-22T09:36:17.555Z,100856.69
2023-02-22T09:37:49.291Z,100861.72
2023-02-22T09:39:21.699Z,100870.28
2023-02-22T09:40:54.609Z,100863.91
2023-02-22T09:42:33.574Z,100856.59
2023-02-22T09:44:10.079Z,100853.78
2023-02-22T09:45:48.294Z,100860.63
2023-02-22T09:47:32.319Z,100857.78
2023-02-22T09:49:07.078Z,100860.16
2023-02-22T09:50:42.545Z,100850.44
2023-02-22T09:52:18.667Z,100852.25
2023-02-22T09:53:52.255Z,100851.22
2023-02-22T09:55:29.013Z,100854.78
2023-02-22T09:57:02.316Z,100848.66
2023-02-22T09:58:35.712Z,100851.19
2023-02-22T10:00:13.755Z,100854.50
2023-02-22T10:01:48.792Z,100853.47
2023-02-22T10:03:24.280Z,100844.53
2023-02-22T10:05:00.411Z,100847.00
2023-02-22T10:06:33.800Z,100841.53
2023-02-22T10:08:06.080Z,100840.41
2023-02-22T10:09:42.667Z,100837.38
2023-02-22T10:11:19.498Z,100836.78
2023-02-22T10:12:57.030Z,100834.72
2023-02-22T10:14:38.838Z,100836.16
2023-02-22T10:16:14.673Z,100840.53
2023-02-22T10:17:50.085Z,100843.09
2023-02-22T10:19:27.886Z,100834.38
2023-02-22T10:21:03.597Z,100834.16
2023-02-22T10:22:44.071Z,100828.63
2023-02-22T10:24:23.600Z,100829.22
2023-02-22T10:25:57.348Z,100823.84
2023-02-22T10:27:34.162Z,100822.69
2023-02-22T10:29:11.466Z,100822.59
2023-02-22T10:30:49.306Z,100819.66
2023-02-22T10:32:24.028Z,100813.13
2023-02-22T10:33:58.707Z,100813.59
2023-02-22T10:35:35.118Z,100813.19
2023-02-22T10:37:17.165Z,100815.38
2023-02-22T10:38:53.435Z,100819.38
2023-02-22T10:40:32.232Z,100809.41
2023-02-22T10:42:06.798Z,100804.84
2023-02-22T10:43:38.901Z,100807.25
2023-02-22T10:45:19.270Z,100803.56
2023-02-22T10:46:53.425Z,100805.00
2023-02-22T10:48:26.335Z,100799.38
2023-02-22T10:50:00.730Z,100796.38
2023-02-22T10:51:33.881Z,100792.59
2023-02-22T10:53:05.588Z,100796.47
2023-02-22T10:54:40.296Z,100789.81
2023-02-22T10:56:14.662Z,100790.16
2023-02-22T10:57:47.496Z,100788.19
2023-02-22T10:59:29.400Z,100784.75
2023-02-22T11:01:00.964Z,100788.31
2023-02-22T11:02:33.336Z,100786.59
2023-02-22T11:04:11.644Z,100792.59
2023-02-22T11:05:43.809Z,100788.31
2023-02-22T11:07:23.964Z,100794.59
2023-02-22T11:09:04.715Z,100798.09
2023-02-22T11:10:38.712Z,100782.31
2023-02-22T11:12:11.571Z,100794.47
2023-02-22T11:13:45.743Z,100793.16
2023-02-22T11:15:25.915Z,100798.28
2023-02-22T11:16:58.581Z,100791.78
2023-02-22T11:18:32.264Z,100792.03
2023-02-22T11:20:04.222Z,100789.78
2023-02-22T11:21:36.098Z,100787.78
2023-02-22T11:23:10.124Z,100793.66
2023-02-22T11:24:49.238Z,100791.66
2023-02-22T11:26:21.043Z,100789.72
2023-02-22T11:27:54.029Z,100785.06
2023-02-22T11:29:27.153Z,100783.88
2023-02-22T11:31:08.539Z,100776.34
2023-02-22T11:32:44.637Z,100774.50
2023-02-22T11:34:40.129Z,100768.13
2023-02-22T11:36:14.869Z,100766.03
2023-02-22T11:37:46.705Z,100768.19
2023-02-22T11:39:26.970Z,100764.34
2023-02-22T11:41:07.953Z,100767.34
2023-02-22T11:42:39.553Z,100772.41
2023-02-22T11:44:21.148Z,100768.81
2023-02-22T11:45:59.976Z,100759.16
2023-02-22T11:47:32.642Z,100763.75
2023-02-22T11:49:06.851Z,100761.88
2023-02-22T11:50:46.516Z,100764.09
2023-02-22T11:52:27.077Z,100763.53
2023-02-22T11:54:05.002Z,100757.91
2023-02-22T11:55:43.084Z,100759.28
2023-02-22T11:57:22.093Z,100762.72
2023-02-22T11:58:56.313Z,100752.53
2023-02-22T12:00:33.432Z,100754.84
2023-02-22T12:02:18.849Z,100753.78
2023-02-22T12:04:05.293Z,100752.00
2023-02-22T12:05:46.273Z,100746.91
2023-02-22T12:07:23.863Z,100738.75
2023-02-22T12:09:03.221Z,100747.63
2023-02-22T12:10:45.885Z,100747.84
2023-02-22T12:12:21.593Z,100745.97
2023-02-22T12:13:59.581Z,100743.19
2023-02-22T12:15:36.206Z,100746.44
2023-02-22T12:17:14.536Z,100745.50
2023-02-22T12:18:53.650Z,100747.91
2023-02-22T12:20:27.460Z,100741.06
2023-02-22T12:22:02.408Z,100739.56
2023-02-22T12:23:40.633Z,100744.38
2023-02-22T12:25:19.654Z,100744.13
2023-02-22T12:26:55.430Z,100737.88
2023-02-22T12:28:31.490Z,100742.22
2023-02-22T12:30:04.903Z,100744.72
2023-02-22T12:31:38.802Z,100737.16
2023-02-22T12:33:13.980Z,100734.41
2023-02-22T12:34:47.543Z,100732.94
2023-02-22T12:36:20.893Z,100732.66
2023-02-22T12:37:54.958Z,100738.38
2023-02-22T12:39:50.705Z,100741.31
2023-02-22T12:41:28.546Z,100735.34
2023-02-22T12:43:05.385Z,100733.56
2023-02-22T12:44:39.447Z,100737.84
2023-02-22T12:46:13.528Z,100727.72
2023-02-22T12:47:49.133Z,100728.84
2023-02-22T12:49:26.187Z,100729.13
2023-02-22T12:50:59.712Z,100733.22
2023-02-22T12:52:40.130Z,100727.56
2023-02-22T12:54:14.489Z,100730.56
2023-02-22T12:55:49.511Z,100728.50
2023-02-22T12:57:25.442Z,100728.09
2023-02-22T12:59:02.916Z,100716.03
2023-02-22T13:00:38.314Z,100715.44
2023-02-22T13:02:14.470Z,100718.16
2023-02-22T13:03:46.451Z,100722.91
2023-02-22T13:05:18.583Z,100718.13
2023-02-22T13:06:56.265Z,100719.25
2023-02-22T13:08:32.721Z,100729.06
2023-02-22T13:10:26.390Z,100725.25
2023-02-22T13:12:00.990Z,100723.47
2023-02-22T13:13:36.567Z,100730.94
2023-02-22T13:15:14.619Z,100720.00
2023-02-22T13:16:52.596Z,100712.66
2023-02-22T13:18:28.825Z,100724.59
2023-02-22T13:20:03.369Z,100725.56
2023-02-22T13:21:41.885Z,100720.13
2023-02-22T13:23:19.155Z,100718.44
2023-02-22T13:24:58.537Z,100714.16
2023-02-22T13:26:34.865Z,100721.94
2023-02-22T13:28:16.960Z,100714.28
2023-02-22T13:29:50.630Z,100715.78
2023-02-22T13:31:31.050Z,100714.94
2023-02-22T13:33:17.596Z,100709.59
2023-02-22T13:34:59.473Z,100715.47
2023-02-22T13:36:36.665Z,100713.56
2023-02-22T13:38:23.440Z,100714.53
2023-02-22T13:40:02.553Z,100715.19
2023-02-22T13:41:42.920Z,100707.50
2023-02-22T13:43:38.381Z,100709.41
2023-02-22T13:45:23.742Z,100706.44
2023-02-22T13:47:11.455Z,100710.06
2023-02-22T13:48:52.852Z,100715.28
2023-02-22T13:50:51.621Z,100702.38
2023-02-22T13:52:25.270Z,100711.72
2023-02-22T13:54:01.532Z,100703.94
2023-02-22T13:55:34.523Z,100704.94
2023-02-22T13:57:17.472Z,100695.91
2023-02-22T13:58:51.104Z,100701.28
2023-02-22T14:00:23.914Z,100706.75
2023-02-22T14:01:56.155Z,100703.19
2023-02-22T14:03:36.131Z,100703.88
2023-02-22T14:05:27.542Z,100704.09
2023-02-22T14:07:02.676Z,100711.16
2023-02-22T14:08:41.974Z,100714.47
2023-02-22T14:10:28.496Z,100709.69
2023-02-22T14:12:00.056Z,100711.09
2023-02-22T14:13:33.269Z,100706.06
2023-02-22T14:15:28.297Z,100702.69
2023-02-22T14:17:31.320Z,100709.84
2023-02-22T14:19:06.378Z,100713.19
2023-02-22T14:20:38.296Z,100707.97
2023-02-22T14:22:28.117Z,100702.25
2023-02-22T14:24:06.877Z,100709.09
2023-02-22T14:25:40.201Z,100709.78
2023-02-22T14:27:13.512Z,100712.50
2023-02-22T14:28:51.345Z,100703.88
2023-02-22T14:30:26.090Z,100702.81
2023-02-22T14:32:06.410Z,100709.56
2023-02-22T14:34:05.284Z,100703.56
2023-02-22T14:35:49.365Z,100700.72
2023-02-22T14:37:25.190Z,100701.97
2023-02-22T14:39:01.802Z,100696.84
2023-02-22T14:40:36.194Z,100702.72
2023-02-22T14:42:10.405Z,100699.97
2023-02-22T14:43:43.184Z,100702.63
2023-02-22T14:45:17.647Z,100702.53
2023-02-22T14:46:53.590Z,100709.09
2023-02-22T14:48:28.479Z,100709.56
2023-02-22T14:50:03.426Z,100694.19
2023-02-22T14:51:41.439Z,100706.44
2023-02-22T14:53:19.998Z,100700.25
2023-02-22T14:54:59.175Z,100712.50
2023-02-22T14:56:36.220Z,100710.91
2023-02-22T14:58:10.258Z,100708.44
2023-02-22T14:59:50.511Z,100707.50
2023-02-22T15:01:31.232Z,100706.44
2023-02-22T15:03:17.712Z,100710.75
2023-02-22T15:04:52.820Z,100708.91
2023-02-22T15:06:25.979Z,100710.09
2023-02-22T15:07:59.532Z,100706.25
2023-02-22T15:09:37.447Z,100711.38
2023-02-22T15:11:19.630Z,100712.03
2023-02-22T15:12:52.453Z,100708.19
2023-02-22T15:14:26.812Z,100709.69
2023-02-22T15:16:01.810Z,100710.75
2023-02-22T15:17:33.769Z,100705.00
2023-02-22T15:19:07.782Z,100707.94
2023-02-22T15:20:42.603Z,100708.44
2023-02-22T15:22:19.870Z,100708.19
2023-02-22T15:23:54.515Z,100712.09
2023-02-22T15:25:28.548Z,100716.19
2023-02-22T15:27:05.848Z,100714.53
2023-02-22T15:28:38.451Z,100710.19
2023-02-22T15:30:17.037Z,100711.88
2023-02-22T15:31:49.065Z,100724.03
2023-02-22T15:33:24.653Z,100719.06
2023-02-22T15:35:05.600Z,100722.00
2023-02-22T15:36:37.242Z,100720.50
2023-02-22T15:38:17.937Z,100725.91
2023-02-22T15:39:49.515Z,100729.31
2023-02-22T15:41:27.914Z,100731.13
2023-02-22T15:43:00.877Z,100725.81
2023-02-22T15:44:35.243Z,100732.06
2023-02-22T15:46:07.385Z,100727.03
2023-02-22T15:47:40.078Z,100730.44
2023-02-22T15:49:19.442Z,100737.78
2023-02-22T15:51:04.392Z,100729.22
2023-02-22T15:52:36.138Z,100731.59
2023-02-22T15:54:26.635Z,100732.06
2023-02-22T15:56:00.722Z,100728.81
2023-02-22T15:57:34.874Z,100736.84
2023-02-22T15:59:10.964Z,100732.41
2023-02-22T16:00:44.015Z,100733.94
2023-02-22T16:02:21.239Z,100740.34
2023-02-22T16:03:53.518Z,100741.47
2023-02-22T16:05:32.235Z,100736.16
2023-02-22T16:07:06.861Z,100733.69
2023-02-22T16:08:53.951Z,100737.53
2023-02-22T16:10:28.150Z,100736.59
2023-02-22T16:12:10.432Z,100749.84
2023-02-22T16:13:51.125Z,100736.66
2023-02-22T16:15:22.726Z,100745.72
2023-02-22T16:17:14.007Z,100751.41
2023-02-22T16:18:47.712Z,100749.63
2023-02-22T16:20:32.561Z,100751.66
2023-02-22T16:22:10.170Z,100754.47
2023-02-22T16:23:46.571Z,100751.75
2023-02-22T16:25:27.195Z,100751.91
2023-02-22T16:27:04.498Z,100748.69
2023-02-22T16:28:36.149Z,100755.88
2023-02-22T16:30:24.970Z,100754.41
2023-02-22T16:31:57.112Z,100760.56
2023-02-22T16:33:33.921Z,100755.94
2023-02-22T16:35:05.958Z,100761.00
2023-02-22T16:36:39.034Z,100760.81
2023-02-22T16:38:16.900Z,100755.69
2023-02-22T16:39:51.775Z,100758.50
2023-02-22T16:41:23.346Z,100757.91
2023-02-22T16:42:55.029Z,100760.16
2023-02-22T16:44:27.232Z,100762.25
2023-02-22T16:46:02.060Z,100761.84
2023-02-22T16:47:34.631Z,100765.91
2023-02-22T16:49:06.305Z,100764.63
2023-02-22T16:50:37.861Z,100760.50
2023-02-22T16:52:09.497Z,100768.38
2023-02-22T16:53:41.026Z,100763.16
2023-02-22T16:55:14.082Z,100765.88
2023-02-22T16:56:45.622Z,100764.03
2023-02-22T16:58:18.901Z,100768.63
2023-02-22T16:59:52.964Z,100762.56
2023-02-22T17:01:26.505Z,100762.66
2023-02-22T17:02:58.316Z,100768.88
2023-02-22T17:04:30.112Z,100764.53
2023-02-22T17:06:01.692Z,100768.13
2023-02-22T17:07:33.478Z,100766.41
2023-02-22T17:09:05.046Z,100767.56
2023-02-22T17:10:36.784Z,100773.78
2023-02-22T17:12:09.588Z,100773.78
2023-02-22T17:13:41.216Z,100778.22
2023-02-22T17:15:18.393Z,100779.00
2023-02-22T17:16:51.781Z,100782.50
2023-02-22T17:18:24.590Z,100789.53
2023-02-22T17:19:56.141Z,100786.97
2023-02-22T17:21:27.787Z,100779.88
2023-02-22T17:23:00.046Z,100792.34
2023-02-22T17:24:33.931Z,100781.06
2023-02-22T17:26:05.492Z,100791.78
2023-02-22T17:27:36.974Z,100788.28
2023-02-22T17:29:08.704Z,100794.75
2023-02-22T17:30:41.336Z,100795.84
2023-02-22T17:32:14.342Z,100790.78
2023-02-22T17:33:47.988Z,100791.88
2023-02-22T17:35:20.604Z,100795.53
2023-02-22T17:36:52.202Z,100800.22
2023-02-22T17:38:24.074Z,100797.88
2023-02-22T17:39:55.856Z,100800.94
2023-02-22T17:41:27.468Z,100802.22
2023-02-22T17:42:59.240Z,100801.59
2023-02-22T17:44:31.750Z,100805.09
2023-02-22T17:46:07.825Z,100807.06
2023-02-22T17:47:42.206Z,100798.19
2023-02-22T17:49:13.696Z,100801.84
2023-02-22T17:50:46.468Z,100804.63
2023-02-22T17:52:18.024Z,100805.00
2023-02-22T17:53:49.874Z,100808.81
2023-02-22T17:55:22.184Z,100810.69
2023-02-22T17:56:53.831Z,100808.81
2023-02-22T17:58:30.904Z,100816.38
2023-02-22T18:00:12.368Z,100814.50
2023-02-22T18:01:48.173Z,100815.22